Mammoth Cave, Kentucky
Current Conditions -  °F | °C
As of 2:55 AM on Saturday 22 Nov 2014 (Local Time) from KGLW Reporting Station
Overcast Overcast  
Wind Chill: 46°   Ceiling: 9000
Heat Index: 46°   Visibility: 10mi
Dew Point: 27°   Wind: 3mph
Humidity: 49%   Direction: 190°S
Pressure: 30.34"   Gusts: NA
Location:  37.19°N, 86.1°W
Report Text: KGLW 220855Z AUTO 19003KT 10SM SCT065 BKN090 OVC110 08/M03 A3034 RMK AO2 T00751027
Loading
Personal Weather Stations






























Interactive Weather Map New forecast layout! Learn more

10-Day Weather Forecast

Advertisements
Track Severe Weather on mobile